Time;durP1;ratioP1;P1;durP2;ratioP2;P2;SDS_P1;SDS_P2;PMS_P1;PMS_P2;Temp;Humidity;BMP_temperature;BMP_pressure;BME280_temperature;BME280_humidity;BME280_pressure;Samples;Min_cycle;Max_cycle;Signal;HPM_P1;HPM_P2
2023/05/13 00:01:15;;;;;;;20.63;12.50;;;;;;;;;;5034148;28;20097;-54
2023/05/13 00:03:41;;;;;;;21.70;12.90;;;;;;;;;;5034172;28;20064;-55
2023/05/13 00:06:07;;;;;;;20.08;12.75;;;;;;;;;;5030690;28;20052;-57
2023/05/13 00:08:33;;;;;;;22.80;13.50;;;;;;;;;;5033525;28;20025;-55
2023/05/13 00:10:59;;;;;;;20.88;12.35;;;;;;;;;;5016275;28;20017;-55
2023/05/13 00:13:26;;;;;;;22.73;13.73;;;;;;;;;;5034397;28;20017;-55
2023/05/13 00:15:52;;;;;;;19.38;13.00;;;;;;;;;;5033165;28;20496;-54
2023/05/13 00:18:18;;;;;;;19.75;12.55;;;;;;;;;;5015990;28;20477;-52
2023/05/13 00:20:44;;;;;;;18.83;12.73;;;;;;;;;;5015997;28;20036;-55
2023/05/13 00:23:10;;;;;;;18.63;13.05;;;;;;;;;;5033985;28;20017;-55
2023/05/13 00:25:36;;;;;;;20.98;11.98;;;;;;;;;;5033636;28;20056;-53
2023/05/13 00:28:03;;;;;;;20.73;12.85;;;;;;;;;;5016156;28;20029;-54
2023/05/13 00:30:29;;;;;;;21.20;12.00;;;;;;;;;;5016135;28;20116;-56
2023/05/13 00:32:55;;;;;;;18.75;12.27;;;;;;;;;;5033707;28;20052;-59
2023/05/13 00:35:21;;;;;;;19.92;12.80;;;;;;;;;;5033444;28;20496;-53
2023/05/13 00:37:47;;;;;;;19.38;12.45;;;;;;;;;;5033977;28;20366;-59
2023/05/13 00:40:23;;;;;;;21.67;12.85;;;;;;;;;;5034375;28;20120;-57
2023/05/13 00:42:49;;;;;;;17.70;11.30;;;;;;;;;;5034062;28;20022;-51
2023/05/13 00:45:15;;;;;;;18.60;11.98;;;;;;;;;;5033451;28;20076;-52
2023/05/13 00:47:42;;;;;;;20.35;11.57;;;;;;;;;;5033405;28;20029;-57
2023/05/13 00:50:09;;;;;;;23.30;11.55;;;;;;;;;;5033615;28;20086;-57
2023/05/13 00:52:36;;;;;;;23.25;12.43;;;;;;;;;;5033203;28;20481;-55
2023/05/13 00:55:03;;;;;;;19.90;11.68;;;;;;;;;;5032936;28;20029;-55
2023/05/13 00:57:29;;;;;;;19.08;11.10;;;;;;;;;;5032805;28;20022;-58
2023/05/13 00:59:55;;;;;;;20.90;11.75;;;;;;;;;;5033080;28;20045;-56
2023/05/13 01:02:30;;;;;;;18.02;11.73;;;;;;;;;;5033200;28;20029;-53
2023/05/13 01:05:09;;;;;;;18.90;11.50;;;;;;;;;;5032279;28;20014;-59
2023/05/13 01:07:52;;;;;;;18.52;11.70;;;;;;;;;;5014769;28;20025;-58
2023/05/13 01:10:34;;;;;;;18.98;11.07;;;;;;;;;;5016332;28;20171;-56
2023/05/13 01:13:03;;;;;;;20.52;11.65;;;;;;;;;;5034588;28;20021;-56
2023/05/13 01:15:31;;;;;;;19.60;11.65;;;;;;;;;;5033342;28;20033;-55
2023/05/13 01:17:57;;;;;;;20.27;11.70;;;;;;;;;;5032919;28;20037;-54
2023/05/13 01:20:23;;;;;;;19.35;11.95;;;;;;;;;;5032714;28;20022;-57
2023/05/13 01:22:49;;;;;;;19.75;11.65;;;;;;;;;;5032885;28;20112;-58
2023/05/13 01:25:15;;;;;;;20.05;11.73;;;;;;;;;;5032407;28;20097;-57
2023/05/13 01:27:41;;;;;;;22.33;13.07;;;;;;;;;;5014873;28;20025;-54
2023/05/13 01:30:08;;;;;;;19.50;12.43;;;;;;;;;;5032517;28;20025;-56
2023/05/13 01:32:35;;;;;;;22.48;12.45;;;;;;;;;;5032405;28;20042;-54
2023/05/13 01:35:01;;;;;;;19.92;11.55;;;;;;;;;;5032057;28;20440;-56
2023/05/13 01:37:28;;;;;;;18.65;11.32;;;;;;;;;;5032199;28;20108;-56
2023/05/13 01:39:54;;;;;;;21.27;11.90;;;;;;;;;;5032427;28;20049;-57
2023/05/13 01:42:20;;;;;;;19.50;12.38;;;;;;;;;;5032395;28;20433;-56
2023/05/13 01:44:46;;;;;;;19.27;12.40;;;;;;;;;;5012389;28;20482;-57
2023/05/13 01:47:12;;;;;;;25.27;12.43;;;;;;;;;;5028232;28;20025;-55
2023/05/13 01:49:38;;;;;;;20.63;11.93;;;;;;;;;;5032014;28;20493;-55
2023/05/13 01:52:04;;;;;;;22.33;12.38;;;;;;;;;;5032296;28;20026;-51
2023/05/13 01:54:30;;;;;;;20.05;12.50;;;;;;;;;;5031772;28;20025;-54
2023/05/13 01:56:56;;;;;;;19.88;12.40;;;;;;;;;;5032141;28;20025;-54
2023/05/13 01:59:22;;;;;;;20.27;12.73;;;;;;;;;;5032164;28;20496;-55
2023/05/13 02:01:48;;;;;;;21.25;12.57;;;;;;;;;;5014460;28;20032;-55
2023/05/13 02:04:14;;;;;;;21.23;12.70;;;;;;;;;;5014166;28;20634;-53
2023/05/13 02:06:40;;;;;;;19.77;13.60;;;;;;;;;;5014286;28;20031;-57
2023/05/13 02:09:07;;;;;;;21.70;13.68;;;;;;;;;;5031930;28;20026;-54
2023/05/13 02:11:34;;;;;;;21.77;12.88;;;;;;;;;;5014429;28;20498;-54
2023/05/13 02:14:00;;;;;;;18.80;13.20;;;;;;;;;;5014251;28;20026;-56
2023/05/13 02:16:26;;;;;;;20.65;12.43;;;;;;;;;;5032641;28;20072;-56
2023/05/13 02:18:52;;;;;;;21.80;12.40;;;;;;;;;;5032399;28;20025;-55
2023/05/13 02:21:18;;;;;;;35.53;26.20;;;;;;;;;;5032358;28;20393;-52
2023/05/13 02:23:44;;;;;;;27.95;20.08;;;;;;;;;;5014233;28;20097;-56
2023/05/13 02:26:10;;;;;;;40.72;26.42;;;;;;;;;;5031772;28;20037;-57
2023/05/13 02:28:36;;;;;;;42.45;32.08;;;;;;;;;;5031937;28;20101;-55
2023/05/13 02:31:02;;;;;;;28.88;17.80;;;;;;;;;;5031955;28;20393;-55
2023/05/13 02:33:28;;;;;;;20.35;13.57;;;;;;;;;;5031187;28;20021;-54
2023/05/13 02:35:54;;;;;;;28.65;14.40;;;;;;;;;;5013717;28;20501;-54
2023/05/13 02:38:20;;;;;;;21.75;13.80;;;;;;;;;;5031455;28;20052;-56
2023/05/13 02:40:47;;;;;;;21.75;12.55;;;;;;;;;;5013813;28;20462;-55
2023/05/13 02:43:13;;;;;;;20.15;13.35;;;;;;;;;;5013817;28;20481;-53
2023/05/13 02:45:42;;;;;;;20.67;13.52;;;;;;;;;;5030997;28;20032;-57
2023/05/13 02:48:11;;;;;;;22.20;12.85;;;;;;;;;;5013649;28;20045;-57
2023/05/13 02:50:37;;;;;;;21.50;13.55;;;;;;;;;;5014012;28;20033;-56
2023/05/13 02:53:03;;;;;;;21.45;13.05;;;;;;;;;;5031498;28;20029;-58
2023/05/13 02:55:29;;;;;;;19.60;12.63;;;;;;;;;;5013911;28;20028;-50
2023/05/13 02:57:55;;;;;;;22.17;13.45;;;;;;;;;;5031673;28;20533;-54
2023/05/13 03:00:21;;;;;;;20.77;13.10;;;;;;;;;;5014138;28;20135;-53
2023/05/13 03:02:47;;;;;;;20.92;12.70;;;;;;;;;;5031636;28;20057;-55
2023/05/13 03:05:13;;;;;;;20.63;12.70;;;;;;;;;;5031402;28;20022;-56
2023/05/13 03:07:39;;;;;;;21.35;13.18;;;;;;;;;;5013950;28;20083;-54
2023/05/13 03:10:05;;;;;;;19.63;12.65;;;;;;;;;;5013692;28;20035;-53
2023/05/13 03:12:32;;;;;;;23.38;12.88;;;;;;;;;;5031570;28;20477;-54
2023/05/13 03:14:58;;;;;;;20.15;12.98;;;;;;;;;;5031518;28;20474;-55
2023/05/13 03:17:24;;;;;;;21.95;13.02;;;;;;;;;;5031356;28;20113;-55
2023/05/13 03:19:50;;;;;;;22.63;13.25;;;;;;;;;;5031695;28;20028;-53
2023/05/13 03:22:17;;;;;;;21.38;13.20;;;;;;;;;;5031651;28;20017;-54
2023/05/13 03:24:43;;;;;;;21.75;13.55;;;;;;;;;;5031214;28;20028;-52
2023/05/13 03:27:09;;;;;;;22.10;14.23;;;;;;;;;;5031037;28;20485;-56
2023/05/13 03:29:35;;;;;;;21.25;13.48;;;;;;;;;;5031167;28;20029;-53
2023/05/13 03:32:01;;;;;;;21.08;13.07;;;;;;;;;;5030838;28;20152;-53
2023/05/13 03:34:27;;;;;;;21.27;12.95;;;;;;;;;;5012932;28;20087;-57
2023/05/13 03:36:53;;;;;;;20.77;13.65;;;;;;;;;;5031194;28;20037;-54
2023/05/13 03:39:19;;;;;;;21.25;12.82;;;;;;;;;;5031079;28;20029;-57
2023/05/13 03:41:45;;;;;;;23.77;13.45;;;;;;;;;;5031109;28;20083;-53
2023/05/13 03:44:11;;;;;;;21.85;13.38;;;;;;;;;;5031321;28;20032;-55
2023/05/13 03:46:37;;;;;;;23.20;14.82;;;;;;;;;;5017271;28;20033;-55
2023/05/13 03:49:03;;;;;;;22.30;12.15;;;;;;;;;;5034591;28;20554;-55
2023/05/13 03:51:30;;;;;;;21.50;13.43;;;;;;;;;;5034679;28;20026;-58
2023/05/13 03:53:56;;;;;;;23.05;12.75;;;;;;;;;;5016710;28;20029;-53
2023/05/13 03:56:22;;;;;;;21.75;14.05;;;;;;;;;;5034200;28;20037;-56
2023/05/13 03:58:47;;;;;;;22.75;13.45;;;;;;;;;;5034334;28;20072;-53
2023/05/13 04:01:14;;;;;;;26.38;13.63;;;;;;;;;;5016580;28;20435;-56
2023/05/13 04:03:43;;;;;;;21.17;13.05;;;;;;;;;;5016674;28;20021;-55
2023/05/13 04:06:09;;;;;;;22.98;14.00;;;;;;;;;;5034118;28;20025;-53
2023/05/13 04:08:34;;;;;;;22.02;14.25;;;;;;;;;;5034177;28;20437;-54
2023/05/13 04:11:00;;;;;;;21.70;13.18;;;;;;;;;;5034348;28;20029;-51
2023/05/13 04:13:26;;;;;;;21.00;12.88;;;;;;;;;;5034695;28;20448;-53
2023/05/13 04:15:54;;;;;;;19.38;12.70;;;;;;;;;;5016272;28;20021;-52
2023/05/13 04:18:20;;;;;;;20.23;13.13;;;;;;;;;;5016382;28;20061;-55
2023/05/13 04:20:46;;;;;;;23.77;12.80;;;;;;;;;;5034034;28;20033;-53
2023/05/13 04:23:12;;;;;;;21.50;13.15;;;;;;;;;;5034143;28;20032;-52
2023/05/13 04:25:38;;;;;;;20.88;12.55;;;;;;;;;;5033783;28;20029;-51
2023/05/13 04:28:04;;;;;;;20.55;12.68;;;;;;;;;;5034110;28;20022;-49
2023/05/13 04:30:30;;;;;;;21.13;13.13;;;;;;;;;;5034187;28;20501;-51
2023/05/13 04:32:56;;;;;;;21.15;12.95;;;;;;;;;;5034255;28;20033;-51
2023/05/13 04:35:22;;;;;;;22.00;13.32;;;;;;;;;;5017023;28;20032;-54
2023/05/13 04:37:48;;;;;;;22.15;13.32;;;;;;;;;;5016021;28;20034;-51
2023/05/13 04:40:14;;;;;;;21.10;13.52;;;;;;;;;;5033820;28;20013;-61
2023/05/13 04:42:40;;;;;;;22.15;14.25;;;;;;;;;;5033903;28;20550;-51
2023/05/13 04:45:07;;;;;;;19.75;13.00;;;;;;;;;;5033685;28;20116;-51
2023/05/13 04:47:34;;;;;;;21.60;13.07;;;;;;;;;;5033734;28;20033;-53
2023/05/13 04:50:00;;;;;;;20.67;12.88;;;;;;;;;;5033484;28;20544;-57
2023/05/13 04:52:26;;;;;;;24.42;14.10;;;;;;;;;;5033536;28;20025;-53
2023/05/13 04:54:52;;;;;;;20.02;12.65;;;;;;;;;;5015281;28;20041;-56
2023/05/13 04:57:18;;;;;;;21.33;13.55;;;;;;;;;;5033400;28;20385;-54
2023/05/13 04:59:44;;;;;;;20.88;12.98;;;;;;;;;;5033638;28;20017;-52
2023/05/13 05:02:10;;;;;;;22.48;13.57;;;;;;;;;;5033344;28;20750;-53
2023/05/13 05:04:36;;;;;;;20.77;13.60;;;;;;;;;;5033157;28;20029;-50
2023/05/13 05:07:02;;;;;;;21.63;13.00;;;;;;;;;;5015685;28;20025;-55
2023/05/13 05:09:29;;;;;;;21.05;13.90;;;;;;;;;;5033066;28;20524;-50
2023/05/13 05:11:55;;;;;;;22.92;14.90;;;;;;;;;;5033044;28;20018;-54
2023/05/13 05:14:21;;;;;;;25.27;14.18;;;;;;;;;;5032867;28;20477;-55
2023/05/13 05:16:46;;;;;;;24.40;13.90;;;;;;;;;;5033308;28;20026;-53
2023/05/13 05:19:12;;;;;;;21.15;12.45;;;;;;;;;;5033100;28;20111;-53
2023/05/13 05:21:38;;;;;;;23.92;15.45;;;;;;;;;;5015030;28;20026;-51
2023/05/13 05:24:05;;;;;;;19.98;13.13;;;;;;;;;;5032689;28;20032;-54
2023/05/13 05:26:31;;;;;;;21.98;13.18;;;;;;;;;;5032856;28;20061;-56
2023/05/13 05:28:57;;;;;;;23.98;13.65;;;;;;;;;;5032730;28;20112;-55
2023/05/13 05:31:23;;;;;;;22.17;13.23;;;;;;;;;;5014864;28;20481;-57
2023/05/13 05:33:49;;;;;;;23.33;15.23;;;;;;;;;;5014956;28;20029;-55
2023/05/13 05:36:15;;;;;;;18.90;12.95;;;;;;;;;;5030647;28;20116;-52
2023/05/13 05:38:41;;;;;;;18.90;12.20;;;;;;;;;;5030767;28;20108;-52
2023/05/13 05:41:07;;;;;;;21.35;13.43;;;;;;;;;;5032413;28;20072;-52
2023/05/13 05:43:33;;;;;;;21.80;13.52;;;;;;;;;;5032244;28;20030;-56
2023/05/13 05:45:59;;;;;;;21.63;14.25;;;;;;;;;;5032213;28;20386;-54
2023/05/13 05:48:25;;;;;;;27.67;17.80;;;;;;;;;;5038247;22;20110;-60
2023/05/13 05:50:51;;;;;;;21.60;13.35;;;;;;;;;;4980987;28;20034;-60
2023/05/13 05:53:17;;;;;;;23.08;13.15;;;;;;;;;;4981834;28;20099;-61
2023/05/13 05:55:43;;;;;;;23.80;14.55;;;;;;;;;;4981957;28;20023;-60
2023/05/13 05:58:09;;;;;;;21.02;12.75;;;;;;;;;;4980873;28;20098;-59
2023/05/13 06:00:35;;;;;;;21.45;12.95;;;;;;;;;;4981764;28;20384;-59
2023/05/13 06:03:01;;;;;;;21.27;13.75;;;;;;;;;;4980197;28;20488;-57
2023/05/13 06:05:27;;;;;;;22.85;15.60;;;;;;;;;;4979640;28;20041;-61
2023/05/13 06:07:53;;;;;;;20.73;13.55;;;;;;;;;;4979859;28;20023;-60
2023/05/13 06:10:19;;;;;;;21.35;13.50;;;;;;;;;;4980425;28;20057;-58
2023/05/13 06:12:45;;;;;;;22.40;14.68;;;;;;;;;;4981360;28;20053;-60
2023/05/13 06:15:11;;;;;;;22.58;14.60;;;;;;;;;;4981523;28;20482;-59
2023/05/13 06:17:38;;;;;;;23.25;13.80;;;;;;;;;;4979778;28;20026;-61
2023/05/13 06:20:04;;;;;;;21.15;13.70;;;;;;;;;;4980148;28;20059;-60
2023/05/13 06:22:30;;;;;;;23.77;15.52;;;;;;;;;;4979351;28;20029;-61
2023/05/13 06:24:56;;;;;;;22.98;15.43;;;;;;;;;;4977417;28;20027;-60
2023/05/13 06:27:22;;;;;;;21.77;14.38;;;;;;;;;;4978977;28;20027;-60
2023/05/13 06:29:48;;;;;;;21.55;12.88;;;;;;;;;;4979308;28;20019;-60
2023/05/13 06:32:14;;;;;;;24.48;13.77;;;;;;;;;;4980446;28;20497;-61
2023/05/13 06:34:44;;;;;;;26.85;18.48;;;;;;;;;;4980351;28;20030;-60
2023/05/13 06:37:10;;;;;;;20.48;13.48;;;;;;;;;;4979883;28;20022;-60
2023/05/13 06:39:37;;;;;;;24.08;14.32;;;;;;;;;;4979837;28;20071;-61
2023/05/13 06:42:03;;;;;;;22.23;15.00;;;;;;;;;;4980286;28;20026;-60
2023/05/13 06:44:29;;;;;;;20.42;13.93;;;;;;;;;;4979580;28;20033;-61
2023/05/13 06:46:55;;;;;;;21.83;15.13;;;;;;;;;;4979730;28;20027;-59
2023/05/13 06:49:23;;;;;;;21.83;15.45;;;;;;;;;;4979146;28;20053;-61
2023/05/13 06:51:49;;;;;;;20.90;13.52;;;;;;;;;;4979737;28;20034;-59
2023/05/13 06:54:15;;;;;;;19.05;13.48;;;;;;;;;;4979328;28;20162;-61
2023/05/13 06:56:42;;;;;;;21.60;15.02;;;;;;;;;;4980019;28;20050;-60
2023/05/13 06:59:08;;;;;;;23.00;13.30;;;;;;;;;;4979943;28;20026;-61
2023/05/13 07:01:34;;;;;;;20.38;13.85;;;;;;;;;;4979442;28;20023;-60
2023/05/13 07:04:00;;;;;;;20.02;13.13;;;;;;;;;;4979879;28;20086;-60
2023/05/13 07:06:26;;;;;;;21.85;14.27;;;;;;;;;;4979351;28;20490;-59
2023/05/13 07:08:52;;;;;;;19.52;13.57;;;;;;;;;;4979211;28;20100;-60
2023/05/13 07:11:18;;;;;;;22.75;13.57;;;;;;;;;;4986201;28;20374;-60
2023/05/13 07:13:44;;;;;;;23.23;13.82;;;;;;;;;;4997764;28;20022;-60
2023/05/13 07:16:10;;;;;;;19.33;12.48;;;;;;;;;;4998678;28;20042;-60
2023/05/13 07:18:36;;;;;;;21.55;13.57;;;;;;;;;;5000184;28;20027;-59
2023/05/13 07:21:02;;;;;;;20.52;14.02;;;;;;;;;;5002908;28;20398;-61
2023/05/13 07:23:30;;;;;;;22.17;13.77;;;;;;;;;;5002727;28;20029;-59
2023/05/13 07:25:56;;;;;;;19.15;13.38;;;;;;;;;;5002311;28;20042;-60
2023/05/13 07:28:22;;;;;;;20.27;13.43;;;;;;;;;;4996130;28;20046;-60
2023/05/13 07:30:48;;;;;;;20.27;13.45;;;;;;;;;;4983172;28;20023;-60
2023/05/13 07:33:14;;;;;;;20.50;12.88;;;;;;;;;;4983062;28;20028;-61
2023/05/13 07:35:40;;;;;;;21.58;13.43;;;;;;;;;;4982485;28;20148;-58
2023/05/13 07:38:07;;;;;;;21.38;13.90;;;;;;;;;;4982718;28;20035;-60
2023/05/13 07:40:33;;;;;;;23.25;13.13;;;;;;;;;;4982881;28;20031;-57
2023/05/13 07:42:59;;;;;;;20.63;13.50;;;;;;;;;;4982583;28;20041;-61
2023/05/13 07:45:26;;;;;;;19.60;12.90;;;;;;;;;;4982438;28;20058;-60
2023/05/13 07:47:52;;;;;;;19.27;11.55;;;;;;;;;;4974716;28;20038;-53
2023/05/13 07:50:18;;;;;;;19.58;12.98;;;;;;;;;;4974147;28;20027;-48
2023/05/13 07:52:47;;;;;;;20.70;13.05;;;;;;;;;;4972761;28;20400;-50
2023/05/13 07:55:13;;;;;;;21.10;12.70;;;;;;;;;;4973744;28;20026;-50
2023/05/13 07:57:39;;;;;;;20.92;12.48;;;;;;;;;;4973981;28;20030;-53
2023/05/13 08:00:06;;;;;;;21.67;12.73;;;;;;;;;;4974039;28;20112;-50
2023/05/13 08:02:33;;;;;;;20.33;12.30;;;;;;;;;;4973716;28;20107;-52
2023/05/13 08:04:59;;;;;;;18.63;11.57;;;;;;;;;;4973684;28;20577;-51
2023/05/13 08:07:26;;;;;;;19.08;12.00;;;;;;;;;;4974014;28;20089;-53
2023/05/13 08:09:51;;;;;;;18.23;11.82;;;;;;;;;;4973893;28;20636;-49
2023/05/13 08:12:17;;;;;;;19.95;12.00;;;;;;;;;;4973575;28;20098;-48
2023/05/13 08:14:43;;;;;;;19.20;11.43;;;;;;;;;;4973717;28;20479;-49
2023/05/13 08:17:10;;;;;;;20.10;11.85;;;;;;;;;;4973918;28;20031;-48
2023/05/13 08:19:36;;;;;;;19.35;12.10;;;;;;;;;;4973926;28;20411;-51
2023/05/13 08:22:02;;;;;;;19.15;11.93;;;;;;;;;;4974147;28;20019;-52
2023/05/13 08:24:28;;;;;;;19.33;12.40;;;;;;;;;;4974742;28;20034;-51
2023/05/13 08:26:54;;;;;;;18.88;12.23;;;;;;;;;;4973082;28;20031;-50
2023/05/13 08:29:20;;;;;;;19.10;12.43;;;;;;;;;;4972965;28;20126;-52
2023/05/13 08:31:46;;;;;;;18.15;12.48;;;;;;;;;;4972104;28;20148;-54
2023/05/13 08:34:12;;;;;;;18.10;11.98;;;;;;;;;;4973071;28;20111;-51
2023/05/13 08:36:38;;;;;;;19.27;12.77;;;;;;;;;;4973710;28;20054;-51
2023/05/13 08:39:04;;;;;;;19.67;12.27;;;;;;;;;;4973535;28;20019;-50
2023/05/13 08:41:33;;;;;;;18.10;12.98;;;;;;;;;;4974200;28;20023;-58
2023/05/13 08:43:59;;;;;;;18.13;12.48;;;;;;;;;;4973835;28;20114;-58
2023/05/13 08:46:27;;;;;;;18.63;13.75;;;;;;;;;;4973673;28;20074;-60
2023/05/13 08:48:55;;;;;;;18.98;12.55;;;;;;;;;;4973484;28;20451;-57
2023/05/13 08:51:21;;;;;;;19.13;13.00;;;;;;;;;;4973496;28;20045;-57
2023/05/13 08:53:47;;;;;;;17.77;12.75;;;;;;;;;;4973302;28;20094;-56
2023/05/13 08:56:13;;;;;;;18.92;13.00;;;;;;;;;;4972979;28;20103;-58
2023/05/13 08:58:40;;;;;;;18.02;13.00;;;;;;;;;;4973190;28;20018;-57
2023/05/13 09:01:07;;;;;;;22.48;13.93;;;;;;;;;;4973120;28;20083;-58
2023/05/13 09:03:34;;;;;;;20.58;13.52;;;;;;;;;;4973096;28;20163;-56
2023/05/13 09:06:01;;;;;;;19.38;12.57;;;;;;;;;;4973084;28;20027;-57
2023/05/13 09:08:27;;;;;;;17.50;13.27;;;;;;;;;;4972922;28;20031;-56
2023/05/13 09:10:53;;;;;;;19.25;12.70;;;;;;;;;;4972711;28;20031;-58
2023/05/13 09:13:19;;;;;;;17.73;12.50;;;;;;;;;;4972706;28;20035;-59
2023/05/13 09:15:45;;;;;;;21.92;13.05;;;;;;;;;;4972504;28;20038;-59
2023/05/13 09:18:12;;;;;;;19.25;13.00;;;;;;;;;;4973167;28;20023;-56
2023/05/13 09:20:38;;;;;;;19.00;12.70;;;;;;;;;;4972921;28;20023;-56
2023/05/13 09:23:09;;;;;;;17.75;13.50;;;;;;;;;;4972870;28;20023;-59
2023/05/13 09:25:36;;;;;;;20.98;14.30;;;;;;;;;;4987677;28;20019;-58
2023/05/13 09:28:04;;;;;;;18.52;13.15;;;;;;;;;;4971550;28;20031;-60
2023/05/13 09:30:30;;;;;;;19.83;12.40;;;;;;;;;;4976263;28;20022;-57
2023/05/13 09:33:11;;;;;;;17.67;12.82;;;;;;;;;;4972397;28;20114;-58
2023/05/13 09:35:38;;;;;;;17.83;13.48;;;;;;;;;;4625023;28;10001401;-59
2023/05/13 09:38:17;;;;;;;18.05;12.55;;;;;;;;;;4967881;28;20101;-59
2023/05/13 09:40:53;;;;;;;21.05;13.48;;;;;;;;;;4969389;28;20026;-59
2023/05/13 09:43:23;;;;;;;18.25;13.35;;;;;;;;;;4960432;28;20035;-56
2023/05/13 09:45:53;;;;;;;18.40;13.40;;;;;;;;;;4950068;28;20114;-58
2023/05/13 09:48:21;;;;;;;20.73;13.38;;;;;;;;;;4964774;28;20045;-58
2023/05/13 09:50:48;;;;;;;20.75;13.45;;;;;;;;;;4950652;28;20038;-59
2023/05/13 09:53:14;;;;;;;19.70;12.55;;;;;;;;;;4983889;28;20453;-58
2023/05/13 09:55:51;;;;;;;20.33;12.43;;;;;;;;;;4969071;28;20027;-57
2023/05/13 09:58:18;;;;;;;18.38;12.90;;;;;;;;;;4983789;28;20538;-58
2023/05/13 10:00:44;;;;;;;17.88;13.30;;;;;;;;;;4979728;28;20050;-60
2023/05/13 10:03:11;;;;;;;22.08;13.55;;;;;;;;;;4977839;28;20026;-58
2023/05/13 10:05:38;;;;;;;20.08;13.23;;;;;;;;;;4969311;28;20046;-59
2023/05/13 10:08:04;;;;;;;19.17;12.80;;;;;;;;;;5000607;28;20398;-58
2023/05/13 10:10:31;;;;;;;19.85;13.18;;;;;;;;;;4983736;28;20302;-58
2023/05/13 10:12:59;;;;;;;17.92;12.88;;;;;;;;;;4968922;28;20035;-58
2023/05/13 10:15:26;;;;;;;18.38;13.48;;;;;;;;;;4968641;28;20030;-57
2023/05/13 10:17:52;;;;;;;17.88;13.40;;;;;;;;;;4984180;28;20127;-60
2023/05/13 10:20:18;;;;;;;22.63;13.52;;;;;;;;;;4968868;28;20027;-59
2023/05/13 10:22:44;;;;;;;18.77;12.77;;;;;;;;;;4968923;28;20045;-58
2023/05/13 10:25:11;;;;;;;18.42;12.93;;;;;;;;;;4968474;28;20027;-59
2023/05/13 10:27:37;;;;;;;20.55;14.05;;;;;;;;;;4968395;28;20082;-59
2023/05/13 10:30:08;;;;;;;20.27;13.00;;;;;;;;;;4969973;28;20074;-58
2023/05/13 10:32:36;;;;;;;18.52;13.38;;;;;;;;;;4985623;28;20079;-59
2023/05/13 10:35:11;;;;;;;18.42;13.40;;;;;;;;;;4970752;28;20063;-57
2023/05/13 10:37:49;;;;;;;18.52;13.55;;;;;;;;;;4970997;28;20038;-58
2023/05/13 10:40:34;;;;;;;17.13;13.50;;;;;;;;;;4971065;28;20482;-59
2023/05/13 10:43:10;;;;;;;19.10;13.55;;;;;;;;;;4985532;28;20039;-57
2023/05/13 10:45:36;;;;;;;19.23;13.50;;;;;;;;;;4970726;28;20102;-59
2023/05/13 10:48:06;;;;;;;19.13;13.20;;;;;;;;;;4985780;28;20027;-56
2023/05/13 10:50:35;;;;;;;20.08;13.93;;;;;;;;;;4970701;28;20038;-58
2023/05/13 10:53:02;;;;;;;18.98;13.57;;;;;;;;;;4969154;28;20031;-58
2023/05/13 10:55:28;;;;;;;18.60;13.35;;;;;;;;;;4974075;28;20433;-57
2023/05/13 10:58:23;;;;;;;17.10;13.68;;;;;;;;;;4974700;28;20023;-58
2023/05/13 11:00:49;;;;;;;20.88;13.25;;;;;;;;;;4973712;28;20224;-59
2023/05/13 11:03:15;;;;;;;19.30;13.43;;;;;;;;;;4974713;28;20551;-58
2023/05/13 11:05:48;;;;;;;17.70;13.82;;;;;;;;;;4974533;28;20114;-57
2023/05/13 11:08:34;;;;;;;22.95;17.05;;;;;;;;;;4973448;28;20058;-55
2023/05/13 11:11:00;;;;;;;20.23;14.30;;;;;;;;;;4969783;28;20023;-58
2023/05/13 11:13:37;;;;;;;20.58;13.88;;;;;;;;;;4955114;28;20023;-55
2023/05/13 11:16:06;;;;;;;18.63;14.02;;;;;;;;;;4955064;28;20034;-57
2023/05/13 11:18:32;;;;;;;19.38;13.65;;;;;;;;;;4954914;28;20090;-55
2023/05/13 11:21:02;;;;;;;18.98;15.02;;;;;;;;;;4955252;28;20039;-58
2023/05/13 11:23:28;;;;;;;20.30;13.68;;;;;;;;;;4954658;28;20137;-59
2023/05/13 11:26:15;;;;;;;20.02;14.10;;;;;;;;;;4954742;28;20027;-57
2023/05/13 11:28:57;;;;;;;18.90;14.45;;;;;;;;;;4954865;28;20575;-58
2023/05/13 11:31:23;;;;;;;20.33;14.80;;;;;;;;;;4955402;28;20031;-59
2023/05/13 11:34:08;;;;;;;19.40;14.82;;;;;;;;;;4955220;28;20058;-58
2023/05/13 11:36:35;;;;;;;18.65;14.25;;;;;;;;;;4971949;28;20097;-53
2023/05/13 11:39:12;;;;;;;18.15;14.15;;;;;;;;;;4974345;28;20494;-58
2023/05/13 11:41:40;;;;;;;17.52;13.73;;;;;;;;;;4974498;28;20026;-59
2023/05/13 11:44:06;;;;;;;18.55;13.68;;;;;;;;;;4973991;28;20098;-57
2023/05/13 11:46:32;;;;;;;17.35;14.07;;;;;;;;;;4974048;28;20053;-56
2023/05/13 11:48:58;;;;;;;19.88;13.95;;;;;;;;;;5005504;22;20103;-58
2023/05/13 11:51:24;;;;;;;19.15;14.18;;;;;;;;;;5014310;28;20466;-59
2023/05/13 11:54:00;;;;;;;21.02;14.45;;;;;;;;;;5014061;28;20034;-60
2023/05/13 11:56:30;;;;;;;17.67;13.93;;;;;;;;;;5014237;28;20030;-57
2023/05/13 11:59:13;;;;;;;19.73;13.73;;;;;;;;;;5013715;28;20022;-58
2023/05/13 12:01:39;;;;;;;18.42;13.52;;;;;;;;;;5014266;28;20033;-59
2023/05/13 12:04:05;;;;;;;19.67;14.32;;;;;;;;;;5012773;28;20029;-59
2023/05/13 12:06:31;;;;;;;18.92;14.50;;;;;;;;;;5012676;28;20034;-56
2023/05/13 12:09:07;;;;;;;17.05;13.73;;;;;;;;;;5013768;28;20494;-58
2023/05/13 12:11:33;;;;;;;16.95;14.05;;;;;;;;;;5013630;28;20021;-58
2023/05/13 12:14:00;;;;;;;18.08;13.88;;;;;;;;;;5013743;28;20024;-60
2023/05/13 12:16:26;;;;;;;18.15;13.45;;;;;;;;;;5014352;28;20121;-60
2023/05/13 12:19:05;;;;;;;19.25;13.50;;;;;;;;;;5013661;28;20037;-60
2023/05/13 12:21:33;;;;;;;23.30;14.77;;;;;;;;;;5012606;28;20026;-59
2023/05/13 12:23:59;;;;;;;18.38;14.48;;;;;;;;;;5013651;28;20030;-60
2023/05/13 12:26:25;;;;;;;20.67;15.45;;;;;;;;;;5012487;28;20030;-59
2023/05/13 12:28:58;;;;;;;20.08;14.60;;;;;;;;;;5013632;28;20030;-58
2023/05/13 12:31:24;;;;;;;18.15;15.30;;;;;;;;;;5014016;28;20053;-59
2023/05/13 12:33:50;;;;;;;19.17;15.88;;;;;;;;;;5011915;28;20022;-59
2023/05/13 12:36:30;;;;;;;20.75;14.73;;;;;;;;;;5013085;28;20018;-58
2023/05/13 12:39:01;;;;;;;20.52;15.32;;;;;;;;;;4994130;28;20180;-59
2023/05/13 12:41:28;;;;;;;20.27;14.93;;;;;;;;;;4994091;28;20454;-59
2023/05/13 12:43:58;;;;;;;18.45;14.32;;;;;;;;;;4993872;28;20058;-60
2023/05/13 12:46:24;;;;;;;17.90;15.20;;;;;;;;;;4993715;28;20057;-56
2023/05/13 12:48:57;;;;;;;17.45;13.55;;;;;;;;;;4993658;28;20027;-59
2023/05/13 12:51:24;;;;;;;17.73;14.48;;;;;;;;;;4993884;28;20030;-59
2023/05/13 12:53:52;;;;;;;17.70;14.35;;;;;;;;;;4993523;28;20069;-59
2023/05/13 12:56:18;;;;;;;18.27;14.70;;;;;;;;;;4993565;28;20101;-59
2023/05/13 12:58:44;;;;;;;18.38;14.43;;;;;;;;;;4993022;28;20424;-57
2023/05/13 13:01:10;;;;;;;19.13;14.43;;;;;;;;;;4993301;28;20026;-58
2023/05/13 13:03:36;;;;;;;20.33;14.73;;;;;;;;;;4993235;28;20114;-59
2023/05/13 13:06:02;;;;;;;18.23;13.30;;;;;;;;;;4993122;28;20050;-60
2023/05/13 13:08:29;;;;;;;20.00;16.33;;;;;;;;;;4994653;28;20049;-59
2023/05/13 13:10:55;;;;;;;18.25;13.88;;;;;;;;;;5011717;28;20026;-59
2023/05/13 13:13:21;;;;;;;20.80;15.45;;;;;;;;;;5012807;28;20648;-58
2023/05/13 13:15:47;;;;;;;19.15;16.00;;;;;;;;;;5012566;28;20041;-60
2023/05/13 13:18:13;;;;;;;18.70;14.75;;;;;;;;;;5012474;28;20030;-59
2023/05/13 13:20:39;;;;;;;19.35;15.43;;;;;;;;;;5012732;28;20557;-59
2023/05/13 13:23:05;;;;;;;46.15;24.00;;;;;;;;;;5011133;28;20022;-58
2023/05/13 13:25:31;;;;;;;18.73;14.80;;;;;;;;;;5010774;28;20018;-58
2023/05/13 13:27:57;;;;;;;19.00;15.35;;;;;;;;;;5011288;28;20486;-61
2023/05/13 13:30:23;;;;;;;18.50;14.25;;;;;;;;;;5012137;28;20479;-58
2023/05/13 13:32:49;;;;;;;18.05;14.43;;;;;;;;;;5012507;28;20037;-56
2023/05/13 13:35:15;;;;;;;20.48;14.15;;;;;;;;;;5011660;28;20029;-59
2023/05/13 13:37:41;;;;;;;19.67;14.80;;;;;;;;;;5012342;28;20450;-59
2023/05/13 13:40:08;;;;;;;20.48;14.05;;;;;;;;;;5012455;28;20034;-58
2023/05/13 13:42:34;;;;;;;19.05;14.30;;;;;;;;;;5012693;28;20413;-59
2023/05/13 13:45:01;;;;;;;19.25;14.55;;;;;;;;;;5011794;28;20502;-59
2023/05/13 13:47:27;;;;;;;18.33;14.60;;;;;;;;;;5012432;28;20038;-57
2023/05/13 13:49:53;;;;;;;17.80;14.05;;;;;;;;;;5011226;28;20425;-58
2023/05/13 13:52:21;;;;;;;18.77;14.35;;;;;;;;;;5011273;28;20030;-59
2023/05/13 13:54:47;;;;;;;17.90;14.90;;;;;;;;;;5011950;28;20478;-57
2023/05/13 13:57:13;;;;;;;17.10;14.15;;;;;;;;;;5012256;28;20553;-59
2023/05/13 13:59:39;;;;;;;18.75;14.02;;;;;;;;;;5011591;28;20092;-56
2023/05/13 14:02:06;;;;;;;17.45;14.27;;;;;;;;;;5011786;28;20077;-60
2023/05/13 14:04:32;;;;;;;17.98;14.23;;;;;;;;;;5010174;28;20486;-59
2023/05/13 14:06:59;;;;;;;17.83;13.90;;;;;;;;;;5011625;28;20089;-59
2023/05/13 14:09:25;;;;;;;18.80;14.70;;;;;;;;;;5010801;28;20026;-59
2023/05/13 14:11:51;;;;;;;19.58;15.23;;;;;;;;;;5012060;28;20080;-60
2023/05/13 14:14:17;;;;;;;17.63;14.63;;;;;;;;;;5011700;28;20132;-58
2023/05/13 14:16:43;;;;;;;19.08;15.02;;;;;;;;;;5011765;28;20047;-57